createdAt,value
2023-03-07T00:01:02.234Z,-0.40
2023-03-07T00:03:29.330Z,-0.50
2023-03-07T00:06:08.661Z,-0.60
2023-03-07T00:08:36.257Z,-0.60
2023-03-07T00:11:08.981Z,-0.60
2023-03-07T00:13:37.718Z,-0.70
2023-03-07T00:16:07.470Z,-0.70
2023-03-07T00:18:35.220Z,-0.60
2023-03-07T00:21:08.234Z,-0.70
2023-03-07T00:23:37.260Z,-0.80
2023-03-07T00:26:19.635Z,-0.90
2023-03-07T00:28:48.600Z,-1.00
2023-03-07T00:31:15.998Z,-1.00
2023-03-07T00:33:43.442Z,-1.10
2023-03-07T00:36:16.927Z,-1.10
2023-03-07T00:38:44.365Z,-1.10
2023-03-07T00:41:16.691Z,-1.10
2023-03-07T00:43:44.132Z,-1.00
2023-03-07T00:46:11.978Z,-1.00
2023-03-07T00:48:39.838Z,-0.90
2023-03-07T00:51:09.156Z,-0.90
2023-03-07T00:53:37.058Z,-0.80
2023-03-07T00:56:09.977Z,-0.80
2023-03-07T00:58:37.092Z,-0.80
2023-03-07T01:01:06.258Z,-0.80
2023-03-07T01:03:34.436Z,-0.80
2023-03-07T01:06:10.005Z,-0.70
2023-03-07T01:08:36.912Z,-0.60
2023-03-07T01:11:06.071Z,-0.70
2023-03-07T01:13:34.650Z,-0.60
2023-03-07T01:16:22.803Z,-0.70
2023-03-07T01:18:52.896Z,-0.60
2023-03-07T01:21:28.248Z,-0.70
2023-03-07T01:23:55.256Z,-0.70
2023-03-07T01:26:27.701Z,-0.60
2023-03-07T01:28:57.071Z,-0.80
2023-03-07T01:31:25.479Z,-0.80
2023-03-07T01:33:54.072Z,-0.80
2023-03-07T01:36:29.986Z,-0.90
2023-03-07T01:39:05.256Z,-0.90
2023-03-07T01:41:33.387Z,-0.90
2023-03-07T01:44:08.038Z,-0.90
2023-03-07T01:46:44.282Z,-0.80
2023-03-07T01:49:29.242Z,-0.90
2023-03-07T01:52:12.010Z,-0.90
2023-03-07T01:54:42.904Z,-0.90
2023-03-07T01:57:09.970Z,-0.90
2023-03-07T01:59:42.520Z,-1.00
2023-03-07T02:02:17.352Z,-1.00
2023-03-07T02:05:02.325Z,-1.10
2023-03-07T02:07:34.624Z,-1.20
2023-03-07T02:10:02.050Z,-1.30
2023-03-07T02:12:29.001Z,-1.30
2023-03-07T02:14:56.016Z,-1.40
2023-03-07T02:17:22.901Z,-1.40
2023-03-07T02:19:58.569Z,-1.50
2023-03-07T02:22:26.000Z,-1.50
2023-03-07T02:25:14.649Z,-1.50
2023-03-07T02:27:42.324Z,-1.50
2023-03-07T02:30:10.409Z,-1.50
2023-03-07T02:32:37.296Z,-1.50
2023-03-07T02:35:15.896Z,-1.50
2023-03-07T02:37:45.883Z,-1.50
2023-03-07T02:40:16.567Z,-1.60
2023-03-07T02:42:44.362Z,-1.60
2023-03-07T02:45:16.210Z,-1.70
2023-03-07T02:47:43.834Z,-1.70
2023-03-07T02:50:13.139Z,-1.80
2023-03-07T02:52:39.952Z,-1.80
2023-03-07T02:55:09.513Z,-1.90
2023-03-07T02:57:36.392Z,-2.00
2023-03-07T03:00:09.391Z,-2.00
2023-03-07T03:02:36.260Z,-2.00
2023-03-07T03:05:03.922Z,-1.90
2023-03-07T03:07:30.841Z,-1.90
2023-03-07T03:09:58.040Z,-2.00
2023-03-07T03:12:24.986Z,-2.10
2023-03-07T03:14:51.785Z,-2.10
2023-03-07T03:17:18.739Z,-2.10
2023-03-07T03:19:45.600Z,-2.10
2023-03-07T03:22:12.417Z,-2.20
2023-03-07T03:24:40.642Z,-2.20
2023-03-07T03:27:07.991Z,-2.20
2023-03-07T03:29:34.940Z,-2.20
2023-03-07T03:32:02.369Z,-2.30
2023-03-07T03:34:29.886Z,-2.40
2023-03-07T03:36:59.495Z,-2.40
2023-03-07T03:39:26.297Z,-2.50
2023-03-07T03:41:53.116Z,-2.50
2023-03-07T03:44:19.929Z,-2.60
2023-03-07T03:46:48.348Z,-2.70
2023-03-07T03:49:16.877Z,-2.70
2023-03-07T03:51:43.843Z,-2.80
2023-03-07T03:54:13.778Z,-2.90
2023-03-07T03:56:40.800Z,-2.90
2023-03-07T03:59:07.865Z,-2.80
2023-03-07T04:01:34.846Z,-3.00
2023-03-07T04:04:02.146Z,-2.90
2023-03-07T04:06:31.348Z,-3.00
2023-03-07T04:08:58.259Z,-3.10
2023-03-07T04:11:25.422Z,-3.10
2023-03-07T04:13:53.252Z,-3.20
2023-03-07T04:16:22.459Z,-3.30
2023-03-07T04:18:52.904Z,-3.40
2023-03-07T04:21:20.629Z,-3.30
2023-03-07T04:23:49.680Z,-3.30
2023-03-07T04:26:16.678Z,-3.20
2023-03-07T04:28:44.871Z,-3.30
2023-03-07T04:31:17.417Z,-3.30
2023-03-07T04:33:44.774Z,-3.20
2023-03-07T04:36:12.793Z,-3.30
2023-03-07T04:38:40.614Z,-3.20
2023-03-07T04:41:07.750Z,-3.20
2023-03-07T04:43:34.818Z,-3.20
2023-03-07T04:46:01.972Z,-3.20
2023-03-07T04:48:28.913Z,-3.30
2023-03-07T04:50:55.922Z,-3.30
2023-03-07T04:53:22.802Z,-3.30
2023-03-07T04:55:49.683Z,-3.20
2023-03-07T04:58:18.031Z,-3.50
2023-03-07T05:00:46.014Z,-3.60
2023-03-07T05:03:14.581Z,-3.40
2023-03-07T05:05:41.529Z,-3.30
2023-03-07T05:08:08.959Z,-3.30
2023-03-07T05:10:36.408Z,-3.30
2023-03-07T05:13:03.854Z,-3.40
2023-03-07T05:15:30.857Z,-3.50
2023-03-07T05:17:58.630Z,-3.60
2023-03-07T05:20:25.521Z,-3.60
2023-03-07T05:22:52.601Z,-3.60
2023-03-07T05:25:19.554Z,-3.40
2023-03-07T05:27:47.103Z,-3.40
2023-03-07T05:30:14.123Z,-3.40
2023-03-07T05:32:41.422Z,-3.40
2023-03-07T05:35:11.177Z,-3.50
2023-03-07T05:37:38.155Z,-3.50
2023-03-07T05:40:11.339Z,-3.40
2023-03-07T05:42:38.147Z,-3.40
2023-03-07T05:45:06.066Z,-3.40
2023-03-07T05:47:32.996Z,-3.40
2023-03-07T05:49:59.923Z,-3.40
2023-03-07T05:52:27.866Z,-3.40
2023-03-07T05:54:55.021Z,-3.40
2023-03-07T05:57:23.025Z,-3.30
2023-03-07T05:59:49.857Z,-3.10
2023-03-07T06:02:17.000Z,-3.20
2023-03-07T06:04:43.868Z,-3.30
2023-03-07T06:07:12.005Z,-3.30
2023-03-07T06:09:38.859Z,-3.10
2023-03-07T06:12:10.684Z,-3.10
2023-03-07T06:14:37.606Z,-3.20
2023-03-07T06:17:05.110Z,-3.10
2023-03-07T06:19:32.027Z,-3.10
2023-03-07T06:21:58.846Z,-3.10
2023-03-07T06:24:31.474Z,-3.00
2023-03-07T06:26:59.833Z,-3.00
2023-03-07T06:29:26.765Z,-3.00
2023-03-07T06:31:53.565Z,-3.00
2023-03-07T06:34:20.485Z,-3.10
2023-03-07T06:36:48.730Z,-3.00
2023-03-07T06:39:20.994Z,-2.90
2023-03-07T06:41:51.307Z,-2.80
2023-03-07T06:44:18.534Z,-2.50
2023-03-07T06:46:46.040Z,-2.30
2023-03-07T06:49:13.253Z,-2.20
2023-03-07T06:51:40.271Z,-2.00
2023-03-07T06:54:07.433Z,-1.80
2023-03-07T06:56:35.314Z,-1.80
2023-03-07T06:59:02.270Z,-1.90
2023-03-07T07:01:36.322Z,-2.00
2023-03-07T07:04:04.034Z,-1.90
2023-03-07T07:06:31.240Z,-1.70
2023-03-07T07:08:58.973Z,-1.60
2023-03-07T07:11:26.535Z,-1.60
2023-03-07T07:13:53.391Z,-1.50
2023-03-07T07:16:23.580Z,-1.40
2023-03-07T07:18:52.132Z,-1.20
2023-03-07T07:21:19.366Z,-1.10
2023-03-07T07:23:48.613Z,-1.20
2023-03-07T07:26:15.789Z,-1.00
2023-03-07T07:28:42.610Z,-0.90
2023-03-07T07:31:09.479Z,-0.80
2023-03-07T07:33:36.402Z,-0.80
2023-03-07T07:36:03.972Z,-0.80
2023-03-07T07:38:30.825Z,-0.60
2023-03-07T07:40:57.851Z,-0.30
2023-03-07T07:43:24.721Z,-0.40
2023-03-07T07:45:51.580Z,-0.50
2023-03-07T07:48:18.439Z,-0.40
2023-03-07T07:50:46.083Z,-0.40
2023-03-07T07:53:13.826Z,-0.50
2023-03-07T07:55:40.662Z,-0.50
2023-03-07T07:58:07.548Z,-0.40
2023-03-07T08:00:34.579Z,-0.50
2023-03-07T08:03:03.937Z,-0.50
2023-03-07T08:05:31.900Z,-0.40
2023-03-07T08:07:59.720Z,-0.30
2023-03-07T08:10:26.784Z,-0.20
2023-03-07T08:12:53.702Z,0.00
2023-03-07T08:15:23.867Z,0.10
2023-03-07T08:17:52.459Z,0.30
2023-03-07T08:20:22.308Z,0.30
2023-03-07T08:22:50.619Z,0.60
2023-03-07T08:25:21.582Z,1.20
2023-03-07T08:27:53.014Z,1.40
2023-03-07T08:30:25.060Z,1.50
2023-03-07T08:32:54.258Z,1.70
2023-03-07T08:35:21.358Z,2.00
2023-03-07T08:37:52.687Z,2.20
2023-03-07T08:40:20.518Z,2.40
2023-03-07T08:42:47.602Z,2.60
2023-03-07T08:45:15.305Z,2.50
2023-03-07T08:47:42.429Z,2.50
2023-03-07T08:50:09.855Z,2.60
2023-03-07T08:52:36.733Z,2.70
2023-03-07T08:55:03.933Z,2.90
2023-03-07T08:57:31.391Z,3.40
2023-03-07T08:59:58.234Z,3.30
2023-03-07T09:02:25.163Z,3.30
2023-03-07T09:04:59.052Z,3.60
2023-03-07T09:07:27.577Z,3.80
2023-03-07T09:09:54.350Z,3.60
2023-03-07T09:12:25.381Z,3.70
2023-03-07T09:14:55.987Z,3.80
2023-03-07T09:17:23.057Z,3.70
2023-03-07T09:19:50.685Z,3.70
2023-03-07T09:22:17.670Z,3.70
2023-03-07T09:24:44.511Z,3.80
2023-03-07T09:27:11.609Z,3.80
2023-03-07T09:29:38.457Z,4.00
2023-03-07T09:32:05.608Z,3.90
2023-03-07T09:34:32.454Z,3.70
2023-03-07T09:36:59.853Z,3.70
2023-03-07T09:39:26.701Z,3.50
2023-03-07T09:42:14.605Z,3.70
2023-03-07T09:44:41.357Z,3.60
2023-03-07T09:47:34.418Z,3.60
2023-03-07T09:50:03.993Z,3.40
2023-03-07T09:52:35.042Z,3.40
2023-03-07T09:55:12.080Z,3.40
2023-03-07T09:57:48.239Z,3.10
2023-03-07T10:00:33.008Z,2.90
2023-03-07T10:03:19.641Z,2.70
2023-03-07T10:05:51.645Z,2.80
2023-03-07T10:08:33.124Z,2.90
2023-03-07T10:11:01.022Z,2.90
2023-03-07T10:14:03.164Z,2.70
2023-03-07T10:17:07.686Z,2.70
2023-03-07T10:20:01.168Z,2.80
2023-03-07T10:22:31.138Z,2.90
2023-03-07T10:25:27.404Z,3.00
2023-03-07T10:28:08.784Z,2.90
2023-03-07T10:30:35.901Z,3.00
2023-03-07T10:33:06.661Z,3.20
2023-03-07T10:35:41.265Z,3.20
2023-03-07T10:38:26.812Z,3.10
2023-03-07T10:41:06.608Z,3.10
2023-03-07T10:43:34.925Z,3.10
2023-03-07T10:46:26.495Z,3.40
2023-03-07T10:49:10.181Z,3.60
2023-03-07T10:52:12.751Z,4.10
2023-03-07T10:54:39.948Z,4.50
2023-03-07T10:57:16.565Z,4.90
2023-03-07T10:59:48.553Z,5.60
2023-03-07T11:02:37.211Z,5.70
2023-03-07T11:05:24.208Z,5.50
2023-03-07T11:07:51.080Z,5.50
2023-03-07T11:10:40.132Z,5.30
2023-03-07T11:13:34.079Z,5.50
2023-03-07T11:16:18.756Z,5.80
2023-03-07T11:18:46.129Z,5.90
2023-03-07T11:21:52.218Z,5.90
2023-03-07T11:24:28.590Z,5.80
2023-03-07T11:26:57.442Z,6.10
2023-03-07T11:29:26.002Z,6.40
2023-03-07T11:31:58.669Z,6.50
2023-03-07T11:34:52.307Z,6.70
2023-03-07T11:37:34.607Z,7.30
2023-03-07T11:40:33.296Z,6.50
2023-03-07T11:43:12.082Z,6.60
2023-03-07T11:45:48.259Z,7.00
2023-03-07T11:48:57.151Z,7.60
2023-03-07T11:51:42.900Z,8.30
2023-03-07T11:54:24.771Z,8.90
2023-03-07T11:56:54.908Z,9.50
2023-03-07T12:00:17.990Z,9.70
2023-03-07T12:03:06.322Z,9.80
2023-03-07T12:05:33.397Z,10.00
2023-03-07T12:08:33.680Z,10.00
2023-03-07T12:11:23.257Z,10.00
2023-03-07T12:14:08.123Z,9.70
2023-03-07T12:16:44.794Z,10.20
2023-03-07T12:19:24.789Z,9.70
2023-03-07T12:22:09.213Z,9.60
2023-03-07T12:25:12.885Z,10.00
2023-03-07T12:27:44.678Z,9.80
2023-03-07T12:30:25.355Z,10.00
2023-03-07T12:32:55.568Z,10.20
2023-03-07T12:35:31.303Z,10.50
2023-03-07T12:37:58.136Z,10.30
2023-03-07T12:41:07.992Z,9.60
2023-03-07T12:43:41.193Z,10.00
2023-03-07T12:46:19.383Z,9.90
2023-03-07T12:49:04.899Z,9.30
2023-03-07T12:51:47.618Z,9.30
2023-03-07T12:54:21.479Z,8.90
2023-03-07T12:57:14.930Z,8.20
2023-03-07T12:59:44.172Z,8.00
2023-03-07T13:02:22.537Z,7.80
2023-03-07T13:04:50.014Z,7.60
2023-03-07T13:07:33.515Z,7.70
2023-03-07T13:10:07.380Z,7.80
2023-03-07T13:12:36.858Z,7.70
2023-03-07T13:15:21.024Z,7.60
2023-03-07T13:17:47.946Z,7.30
2023-03-07T13:20:38.342Z,7.20
2023-03-07T13:23:21.356Z,7.00
2023-03-07T13:26:13.280Z,7.10
2023-03-07T13:28:46.544Z,6.90
2023-03-07T13:31:29.298Z,7.10
2023-03-07T13:34:16.846Z,6.90
2023-03-07T13:36:43.787Z,6.80
2023-03-07T13:39:36.753Z,6.90
2023-03-07T13:42:25.714Z,6.50
2023-03-07T13:44:52.695Z,6.50
2023-03-07T13:50:35.913Z,6.50
2023-03-07T13:53:14.516Z,6.40
2023-03-07T13:55:46.934Z,6.40
2023-03-07T13:58:33.188Z,6.50
2023-03-07T14:01:04.418Z,6.40
2023-03-07T14:03:37.882Z,6.40
2023-03-07T14:06:23.215Z,6.40
2023-03-07T14:08:58.244Z,6.40
2023-03-07T14:12:09.604Z,6.20
2023-03-07T14:14:59.752Z,6.20
2023-03-07T14:17:37.983Z,6.10
2023-03-07T14:20:35.696Z,6.10
2023-03-07T14:23:21.035Z,6.10
2023-03-07T14:25:52.478Z,6.10
2023-03-07T14:28:27.826Z,6.00
2023-03-07T14:31:03.505Z,6.00
2023-03-07T14:33:38.498Z,6.00
2023-03-07T14:36:21.080Z,6.00
2023-03-07T14:38:50.310Z,6.00
2023-03-07T14:41:26.368Z,6.00
2023-03-07T14:44:18.775Z,6.00
2023-03-07T14:47:13.406Z,6.00
2023-03-07T14:49:49.158Z,6.00
2023-03-07T14:52:30.081Z,5.90
2023-03-07T14:55:01.963Z,5.80
2023-03-07T14:57:33.723Z,5.90
2023-03-07T15:00:25.368Z,5.90
2023-03-07T15:03:08.295Z,5.90
2023-03-07T15:05:46.047Z,5.90
2023-03-07T15:08:23.236Z,5.90
2023-03-07T15:11:18.277Z,5.80
2023-03-07T15:13:52.698Z,5.80
2023-03-07T15:16:27.320Z,5.80
2023-03-07T15:19:19.312Z,5.80
2023-03-07T15:21:56.054Z,5.80
2023-03-07T15:24:32.205Z,5.70
2023-03-07T15:27:00.783Z,5.70
2023-03-07T15:29:32.840Z,5.60
2023-03-07T15:32:07.245Z,5.60
2023-03-07T15:34:37.605Z,5.60
2023-03-07T15:37:19.597Z,5.60
2023-03-07T15:39:55.965Z,5.60
2023-03-07T15:42:27.490Z,5.60
2023-03-07T15:45:01.543Z,5.60
2023-03-07T15:47:30.949Z,5.50
2023-03-07T15:50:01.184Z,5.50
2023-03-07T15:52:36.338Z,5.50
2023-03-07T15:55:08.247Z,5.40
2023-03-07T15:57:47.757Z,5.40
2023-03-07T16:00:28.133Z,5.50
2023-03-07T16:03:32.164Z,5.50
2023-03-07T16:06:00.888Z,5.40
2023-03-07T16:08:27.784Z,5.40
2023-03-07T16:11:07.973Z,5.40
2023-03-07T16:13:43.782Z,5.40
2023-03-07T16:16:19.838Z,5.40
2023-03-07T16:18:46.920Z,5.30
2023-03-07T16:21:16.434Z,5.30
2023-03-07T16:23:44.272Z,5.30
2023-03-07T16:26:16.525Z,5.30
2023-03-07T16:28:44.463Z,5.30
2023-03-07T16:31:16.514Z,5.30
2023-03-07T16:33:45.201Z,5.30
2023-03-07T16:36:12.945Z,5.20
2023-03-07T16:38:40.228Z,5.20
2023-03-07T16:41:18.728Z,5.20
2023-03-07T16:43:47.318Z,5.20
2023-03-07T16:46:22.622Z,5.20
2023-03-07T16:48:49.885Z,5.20
2023-03-07T16:51:19.260Z,5.10
2023-03-07T16:53:47.516Z,5.10
2023-03-07T16:56:25.359Z,5.00
2023-03-07T16:58:54.149Z,5.00
2023-03-07T17:01:23.566Z,5.00
2023-03-07T17:03:50.533Z,5.00
2023-03-07T17:06:19.093Z,5.00
2023-03-07T17:08:46.031Z,5.00
2023-03-07T17:11:18.942Z,5.10
2023-03-07T17:13:47.692Z,5.10
2023-03-07T17:16:18.460Z,5.00
2023-03-07T17:18:53.381Z,5.00
2023-03-07T17:21:22.138Z,4.90
2023-03-07T17:23:49.694Z,4.90
2023-03-07T17:26:51.098Z,5.00
2023-03-07T17:29:28.751Z,4.90
2023-03-07T17:32:12.236Z,4.90
2023-03-07T17:34:58.674Z,4.90
2023-03-07T17:37:34.753Z,5.00
2023-03-07T17:40:02.180Z,4.80
2023-03-07T17:42:34.270Z,4.80
2023-03-07T17:47:51.533Z,4.80
2023-03-07T17:50:24.951Z,4.80
2023-03-07T17:59:47.740Z,4.70
2023-03-07T18:02:17.677Z,4.60
2023-03-07T18:07:32.408Z,4.60
2023-03-07T18:10:08.000Z,4.70
2023-03-07T18:12:42.393Z,4.60
2023-03-07T18:15:15.158Z,4.50
2023-03-07T18:17:48.164Z,4.50
2023-03-07T18:20:18.128Z,4.50
2023-03-07T18:22:45.372Z,4.50
2023-03-07T18:25:18.231Z,4.50
2023-03-07T18:27:48.002Z,4.50
2023-03-07T18:30:15.346Z,4.50
2023-03-07T18:32:46.226Z,4.50
2023-03-07T18:35:15.590Z,4.50
2023-03-07T18:37:45.086Z,4.60
2023-03-07T18:40:16.996Z,4.60
2023-03-07T18:42:44.116Z,4.60
2023-03-07T18:45:12.675Z,4.70
2023-03-07T18:47:39.516Z,4.60
2023-03-07T18:50:08.143Z,4.60
2023-03-07T18:52:34.954Z,4.60
2023-03-07T18:55:02.912Z,4.60
2023-03-07T18:57:30.511Z,4.60
2023-03-07T18:59:57.432Z,4.60
2023-03-07T19:02:24.681Z,4.60
2023-03-07T19:04:53.907Z,4.60
2023-03-07T19:07:20.904Z,4.60
2023-03-07T19:09:53.299Z,4.70
2023-03-07T19:12:20.664Z,4.60
2023-03-07T19:14:47.503Z,4.60
2023-03-07T19:17:14.349Z,4.70
2023-03-07T19:19:41.328Z,4.70
2023-03-07T19:22:11.148Z,4.70
2023-03-07T19:24:38.186Z,4.70
2023-03-07T19:27:12.658Z,4.70
2023-03-07T19:29:39.465Z,4.70
2023-03-07T19:32:06.426Z,4.70
2023-03-07T19:34:33.511Z,4.70
2023-03-07T19:37:00.529Z,4.80
2023-03-07T19:39:27.582Z,4.70
2023-03-07T19:41:54.733Z,4.80
2023-03-07T19:44:24.159Z,4.80
2023-03-07T19:46:51.024Z,4.90
2023-03-07T19:49:18.516Z,4.80
2023-03-07T19:51:45.417Z,4.90
2023-03-07T19:54:15.548Z,4.90
2023-03-07T19:56:44.526Z,4.80
2023-03-07T19:59:12.813Z,4.90
2023-03-07T20:01:39.705Z,4.80
2023-03-07T20:04:07.925Z,4.80
2023-03-07T20:06:42.396Z,4.80
2023-03-07T20:09:12.957Z,4.80
2023-03-07T20:11:43.342Z,4.80
2023-03-07T20:14:11.309Z,4.80
2023-03-07T20:16:38.361Z,4.80
2023-03-07T20:19:08.764Z,4.80
2023-03-07T20:21:36.553Z,4.80
2023-03-07T20:24:04.728Z,4.80
2023-03-07T20:26:40.910Z,4.80
2023-03-07T20:29:09.675Z,4.80
2023-03-07T20:31:39.226Z,4.80
2023-03-07T20:34:07.140Z,4.80
2023-03-07T20:36:36.493Z,4.80
2023-03-07T20:39:08.934Z,4.80
2023-03-07T20:41:36.087Z,4.70
2023-03-07T20:44:05.990Z,4.70
2023-03-07T20:46:33.863Z,4.60
2023-03-07T20:49:01.939Z,4.60
2023-03-07T20:51:31.952Z,4.60
2023-03-07T20:54:02.915Z,4.50
2023-03-07T20:56:32.170Z,4.50
2023-03-07T20:59:02.505Z,4.50
2023-03-07T21:01:31.838Z,4.50
2023-03-07T21:04:08.292Z,4.40
2023-03-07T21:06:37.394Z,4.40
2023-03-07T21:09:10.281Z,4.50
2023-03-07T21:11:40.115Z,4.40
2023-03-07T21:14:07.544Z,4.30
2023-03-07T21:16:34.673Z,4.30
2023-03-07T21:19:03.349Z,4.20
2023-03-07T21:21:31.140Z,4.20
2023-03-07T21:23:58.362Z,4.20
2023-03-07T21:26:27.877Z,4.20
2023-03-07T21:43:55.088Z,4.20
2023-03-07T21:46:26.254Z,4.20
2023-03-07T21:48:53.620Z,4.20
2023-03-07T21:51:21.167Z,4.20
2023-03-07T21:53:48.126Z,4.30
2023-03-07T21:56:17.262Z,4.20
2023-03-07T21:58:51.654Z,4.20
2023-03-07T22:01:21.279Z,4.20
2023-03-07T22:03:48.248Z,4.20
2023-03-07T22:06:17.055Z,4.20
2023-03-07T22:08:44.024Z,4.20
2023-03-07T22:11:12.608Z,4.20
2023-03-07T22:13:41.397Z,4.30
2023-03-07T22:16:14.590Z,4.30
2023-03-07T22:18:41.429Z,4.30
2023-03-07T22:21:10.302Z,4.30
2023-03-07T22:23:37.391Z,4.20
2023-03-07T22:26:06.902Z,4.30
2023-03-07T22:28:34.664Z,4.30
2023-03-07T22:31:04.782Z,4.40
2023-03-07T22:33:32.276Z,4.30
2023-03-07T22:36:01.144Z,4.20
2023-03-07T22:38:29.187Z,4.00
2023-03-07T22:41:07.799Z,3.70
2023-03-07T22:43:35.960Z,3.60
2023-03-07T22:46:07.404Z,3.50
2023-03-07T22:48:35.252Z,3.20
2023-03-07T22:51:02.240Z,3.10
2023-03-07T22:53:33.903Z,2.80
2023-03-07T22:56:01.130Z,2.60
2023-03-07T22:58:29.475Z,2.60
2023-03-07T23:00:56.395Z,2.60
2023-03-07T23:03:23.511Z,2.70
2023-03-07T23:05:50.474Z,2.50
2023-03-07T23:08:17.374Z,2.30
2023-03-07T23:10:44.216Z,2.20
2023-03-07T23:13:10.977Z,2.00
2023-03-07T23:15:41.401Z,1.80
2023-03-07T23:18:08.869Z,1.70
2023-03-07T23:20:39.019Z,1.60
2023-03-07T23:23:06.117Z,1.50
2023-03-07T23:25:33.848Z,1.60
2023-03-07T23:28:00.819Z,1.60
2023-03-07T23:30:27.736Z,1.70
2023-03-07T23:32:54.931Z,1.70
2023-03-07T23:35:21.723Z,1.60
2023-03-07T23:37:49.615Z,1.50
2023-03-07T23:40:19.345Z,1.30
2023-03-07T23:42:46.103Z,1.40
2023-03-07T23:45:12.984Z,1.40
2023-03-07T23:47:39.769Z,1.50
2023-03-07T23:50:07.796Z,1.50
2023-03-07T23:52:34.691Z,1.40
2023-03-07T23:55:01.631Z,1.40
2023-03-07T23:57:28.426Z,1.30
2023-03-07T23:59:55.187Z,1.40
